»·PEaware :: N191WR KBFL-KHHR

N191WR :: KBFL-KHHR

FLIGHT INFORMATION

Flight Status: Arrived
Operator: Privately registered:
United States
More flights under this callsign
Pilot: Michael M. (12217)
Aircraft: PIPER PA-28 CHEROKEE ARCHER
(PA28)
More flights by this aircraft type
Origin: KBFL Meadows
United States
Destination: KHHR Northrop/Hawthorne Mun
United States
More flights between these airports :: More routes between these airports
Route: +GMN - KHHR
File this flight plan on PilotEdge
Remarks: NEW PILOT EDGE NEW TO PILOT EDGE
Altitude:
(Current/Filed)
9,500ft
Speed:
(Current/Filed)
110kts
Departed: 06-Oct-16 10:23 AM
Arrived: 06-Oct-16 12:16 PM
Distance/Time
Traveled:
97nm/1:53
Distance/Time
To Go:
Arrived

Flight Plot

Page will automatically refresh every two minutes.

Flight plan parsing failed; only flown route is shown


Map Options




Map Legend


Flown Route
Filed Route
Departure Airport
Arrival Airport
Navaid (VOR, NDB)
Fix

Horizontal Profiles

Position Reports

Time Latitude Longitude Heading Altitude Ground
Speed
06-Oct-16 10:08 35.435700 -119.052052 180 503ft 0kts
06-Oct-16 10:09 35.435700 -119.052052 180 503ft 0kts
06-Oct-16 10:10 35.435700 -119.052052 180 503ft 0kts
06-Oct-16 10:11 35.435432 -119.053380 243 500ft 8kts
06-Oct-16 10:12 35.435188 -119.055608 314 491ft 9kts
06-Oct-16 10:13 35.434410 -119.054673 139 490ft 10kts
06-Oct-16 10:14 35.431835 -119.051533 136 480ft 15kts
06-Oct-16 10:15 35.429308 -119.048490 134 481ft 14kts
06-Oct-16 10:16 35.426579 -119.045214 136 477ft 12kts
06-Oct-16 10:17 35.425699 -119.044731 250 473ft 0kts
06-Oct-16 10:18 35.425593 -119.044983 236 472ft 12kts
06-Oct-16 10:19 35.435929 -119.058397 314 869ft 89kts
06-Oct-16 10:20 35.453154 -119.080031 313 1940ft 89kts
06-Oct-16 10:21 35.446301 -119.089764 154 2847ft 89kts
06-Oct-16 10:22 35.422765 -119.084335 197 3781ft 88kts
06-Oct-16 10:23 35.398389 -119.087633 180 4619ft 86kts
06-Oct-16 10:24 35.374920 -119.077643 143 5036ft 105kts
06-Oct-16 10:25 35.347497 -119.057929 159 5095ft 118kts
06-Oct-16 10:26 35.324583 -119.044374 166 6033ft 74kts
06-Oct-16 10:27 35.304933 -119.040578 182 6749ft 74kts
06-Oct-16 10:28 35.284647 -119.031385 168 7432ft 79kts
06-Oct-16 10:29 35.262166 -119.023469 158 7929ft 103kts
06-Oct-16 10:30 35.239463 -119.034510 219 8484ft 97kts
06-Oct-16 10:31 35.219016 -119.022743 171 9285ft 79kts
06-Oct-16 10:32 35.223227 -119.018647 72 9446ft 124kts
06-Oct-16 10:33 35.196928 -118.996521 174 9568ft 134kts
06-Oct-16 10:34 35.162506 -118.987087 169 9567ft 139kts
06-Oct-16 10:35 35.126858 -118.975118 168 9567ft 120kts
06-Oct-16 10:36 35.096705 -118.964603 169 9574ft 106kts
06-Oct-16 10:37 35.081503 -118.959270 169 9577ft 102kts
06-Oct-16 10:38 35.069545 -118.955068 169 9579ft 100kts
06-Oct-16 10:39 35.060147 -118.951761 169 9581ft 99kts
06-Oct-16 10:40 35.050530 -118.948376 169 9583ft 97kts
06-Oct-16 10:41 35.044102 -118.946111 169 9584ft 96kts
06-Oct-16 10:42 35.030143 -118.941192 170 9587ft 95kts
06-Oct-16 10:43 35.017381 -118.936723 169 9587ft 93kts
06-Oct-16 10:44 35.005373 -118.932505 169 9596ft 100kts
06-Oct-16 10:45 34.991110 -118.927543 168 9596ft 121kts
06-Oct-16 10:46 34.974611 -118.921712 167 9593ft 130kts
06-Oct-16 10:47 34.955397 -118.914904 167 9593ft 132kts
06-Oct-16 10:48 34.937423 -118.908549 167 9595ft 132kts
06-Oct-16 10:49 34.919803 -118.902335 168 9596ft 132kts
06-Oct-16 10:50 34.902619 -118.896194 168 9593ft 127kts
06-Oct-16 10:51 34.886446 -118.890366 169 9595ft 122kts
06-Oct-16 10:52 34.868271 -118.883915 169 9596ft 120kts
06-Oct-16 10:53 34.850806 -118.877768 169 9594ft 122kts
06-Oct-16 10:54 34.832570 -118.871358 169 9591ft 124kts
06-Oct-16 10:55 34.815585 -118.865388 169 9590ft 124kts
06-Oct-16 10:56 34.798756 -118.857934 159 9620ft 124kts
06-Oct-16 10:57 34.781254 -118.847494 159 9556ft 128kts
06-Oct-16 10:58 34.763015 -118.836520 159 9558ft 126kts
06-Oct-16 10:59 34.741336 -118.823461 159 9564ft 125kts
06-Oct-16 11:00 34.725694 -118.814027 159 9569ft 124kts
06-Oct-16 11:01 34.707877 -118.803308 159 9568ft 125kts
06-Oct-16 11:02 34.689651 -118.792344 159 9553ft 126kts
06-Oct-16 11:03 34.670405 -118.780964 153 9533ft 130kts
06-Oct-16 11:04 34.661133 -118.775122 158 9515ft 129kts
06-Oct-16 11:05 34.647508 -118.766942 158 9498ft 128kts
06-Oct-16 11:06 34.632709 -118.758198 154 9486ft 133kts
06-Oct-16 11:07 34.609716 -118.744287 155 9462ft 136kts
06-Oct-16 11:08 34.593881 -118.734745 155 9447ft 136kts
06-Oct-16 11:09 34.571873 -118.721517 155 9427ft 135kts
06-Oct-16 11:10 34.556218 -118.712120 156 9414ft 135kts
06-Oct-16 11:11 34.538082 -118.701242 156 9412ft 134kts
06-Oct-16 11:12 34.519932 -118.690361 156 9412ft 133kts
06-Oct-16 11:13 34.504640 -118.681196 156 9411ft 133kts
06-Oct-16 11:14 34.485838 -118.669931 156 9410ft 133kts
06-Oct-16 11:15 34.467544 -118.658962 157 9516ft 124kts
06-Oct-16 11:16 34.450785 -118.648946 157 9554ft 128kts
06-Oct-16 11:17 34.435530 -118.639830 157 9551ft 130kts
06-Oct-16 11:18 34.419408 -118.630190 158 9549ft 130kts
06-Oct-16 11:19 34.407235 -118.622905 158 9547ft 129kts
06-Oct-16 11:20 34.397947 -118.617362 158 9545ft 129kts
06-Oct-16 11:21 34.387714 -118.611255 158 9545ft 128kts
06-Oct-16 11:22 34.379164 -118.606146 158 9544ft 125kts
06-Oct-16 11:23 34.370853 -118.601174 158 9544ft 122kts
06-Oct-16 11:24 34.360889 -118.595224 158 9544ft 119kts
06-Oct-16 11:25 34.352951 -118.590500 158 9546ft 122kts
06-Oct-16 11:26 34.345608 -118.586135 158 9547ft 124kts
06-Oct-16 11:27 34.337491 -118.581302 158 9546ft 126kts
06-Oct-16 11:28 34.329615 -118.576673 155 9540ft 128kts
06-Oct-16 11:29 34.321460 -118.571967 152 9545ft 131kts
06-Oct-16 11:30 34.313576 -118.567207 152 9545ft 133kts
06-Oct-16 11:31 34.305604 -118.562569 155 9338ft 142kts
06-Oct-16 11:32 34.296677 -118.558029 157 8911ft 152kts
06-Oct-16 11:33 34.282568 -118.550888 157 8226ft 154kts
06-Oct-16 11:34 34.267089 -118.543114 154 7553ft 150kts
06-Oct-16 11:35 34.251753 -118.534401 151 6855ft 147kts
06-Oct-16 11:36 34.241880 -118.528541 151 6444ft 142kts
06-Oct-16 11:37 34.231655 -118.522384 151 6153ft 143kts
06-Oct-16 11:38 34.221144 -118.516063 149 5801ft 142kts
06-Oct-16 11:39 34.211147 -118.509656 148 5554ft 134kts
06-Oct-16 11:40 34.202495 -118.503602 146 5507ft 126kts
06-Oct-16 11:41 34.191747 -118.496035 152 5514ft 123kts
06-Oct-16 11:42 34.184231 -118.491102 154 5514ft 121kts
06-Oct-16 11:43 34.179460 -118.488069 154 5515ft 121kts
06-Oct-16 11:44 34.162850 -118.477773 155 5516ft 121kts
06-Oct-16 11:45 34.147461 -118.468525 154 5517ft 127kts
06-Oct-16 11:46 34.138878 -118.463343 154 5518ft 129kts
06-Oct-16 11:47 34.119597 -118.450646 134 5530ft 130kts
06-Oct-16 11:48 34.112220 -118.427359 76 5456ft 135kts
06-Oct-16 11:49 34.128878 -118.421097 324 4987ft 127kts
06-Oct-16 11:50 34.135626 -118.440973 240 4473ft 121kts
06-Oct-16 11:51 34.115886 -118.446677 185 3905ft 121kts
06-Oct-16 11:52 34.110168 -118.447172 187 3961ft 104kts
06-Oct-16 11:53 34.092755 -118.448339 187 3888ft 110kts
06-Oct-16 11:54 34.075033 -118.448176 178 3590ft 126kts
06-Oct-16 11:55 34.057112 -118.446020 176 3117ft 135kts
06-Oct-16 11:56 34.037047 -118.442576 169 2931ft 123kts
06-Oct-16 11:57 34.016607 -118.437460 170 2606ft 126kts
06-Oct-16 11:58 33.999286 -118.433935 177 2597ft 113kts
06-Oct-16 11:59 33.983091 -118.432406 177 2595ft 111kts
06-Oct-16 12:00 33.967374 -118.438886 272 2538ft 109kts
06-Oct-16 12:01 33.980222 -118.436814 91 2593ft 110kts
06-Oct-16 12:02 33.973630 -118.419998 126 2550ft 115kts
06-Oct-16 12:03 33.962987 -118.404164 134 2576ft 111kts
06-Oct-16 12:04 33.949785 -118.387811 135 2597ft 119kts
06-Oct-16 12:05 33.938240 -118.371079 129 2574ft 132kts
06-Oct-16 12:06 33.926639 -118.347393 120 2474ft 125kts
06-Oct-16 12:07 33.920337 -118.325636 83 2364ft 113kts
06-Oct-16 12:08 33.921198 -118.303253 78 1894ft 123kts
06-Oct-16 12:09 33.934128 -118.298762 299 1693ft 86kts
06-Oct-16 12:10 33.928768 -118.311601 194 1102ft 101kts
06-Oct-16 12:11 33.923183 -118.327739 261 161ft 96kts
06-Oct-16 12:12 33.922809 -118.339991 313 61ft 27kts

Navigation Log

Ident Type
Flight plan parsing failed, navigation log unavailable